createdAt,value
2022-12-20T00:00:48.749Z,0.00
2022-12-20T00:01:48.780Z,0.00
2022-12-20T00:02:48.842Z,0.00
2022-12-20T00:03:48.721Z,0.00
2022-12-20T00:04:48.733Z,0.00
2022-12-20T00:05:48.693Z,0.00
2022-12-20T00:06:48.694Z,0.00
2022-12-20T00:07:48.701Z,0.00
2022-12-20T00:08:48.737Z,0.00
2022-12-20T00:09:48.644Z,0.00
2022-12-20T00:10:48.625Z,0.00
2022-12-20T00:11:48.635Z,0.00
2022-12-20T00:12:48.589Z,0.00
2022-12-20T00:13:48.651Z,0.00
2022-12-20T00:14:48.588Z,0.00
2022-12-20T00:15:48.580Z,0.00
2022-12-20T00:16:48.562Z,0.00
2022-12-20T00:17:48.726Z,0.00
2022-12-20T00:18:48.547Z,0.00
2022-12-20T00:19:48.573Z,0.00
2022-12-20T00:20:48.498Z,0.00
2022-12-20T00:21:48.553Z,0.00
2022-12-20T00:22:48.478Z,0.00
2022-12-20T00:23:48.472Z,0.00
2022-12-20T00:24:48.459Z,0.00
2022-12-20T00:25:48.472Z,0.00
2022-12-20T00:26:48.447Z,0.00
2022-12-20T00:27:48.466Z,0.00
2022-12-20T00:28:48.468Z,0.00
2022-12-20T00:29:48.413Z,0.00
2022-12-20T00:30:48.424Z,0.00
2022-12-20T00:31:48.480Z,0.00
2022-12-20T00:32:48.402Z,0.00
2022-12-20T00:33:48.403Z,0.00
2022-12-20T00:34:48.371Z,0.00
2022-12-20T00:35:48.357Z,0.00
2022-12-20T00:36:48.325Z,0.00
2022-12-20T00:37:48.338Z,0.00
2022-12-20T00:38:48.322Z,0.00
2022-12-20T00:39:48.336Z,0.00
2022-12-20T00:40:48.271Z,0.00
2022-12-20T00:41:48.278Z,0.00
2022-12-20T00:42:48.275Z,0.00
2022-12-20T00:43:48.237Z,0.00
2022-12-20T00:44:48.241Z,0.00
2022-12-20T00:45:48.246Z,0.00
2022-12-20T00:46:48.338Z,0.00
2022-12-20T00:47:48.184Z,0.00
2022-12-20T00:48:48.236Z,0.00
2022-12-20T00:49:48.205Z,0.00
2022-12-20T00:50:48.166Z,0.00
2022-12-20T00:51:48.171Z,0.00
2022-12-20T00:52:48.183Z,0.00
2022-12-20T00:53:48.135Z,0.00
2022-12-20T00:54:48.159Z,0.00
2022-12-20T00:55:48.105Z,0.00
2022-12-20T00:56:48.130Z,0.00
2022-12-20T00:57:48.076Z,0.00
2022-12-20T00:58:48.141Z,0.00
2022-12-20T00:59:48.073Z,0.00
2022-12-20T01:00:55.544Z,0.00
2022-12-20T01:01:49.278Z,0.00
2022-12-20T01:02:48.096Z,0.00
2022-12-20T01:03:48.065Z,0.00
2022-12-20T01:04:48.062Z,0.00
2022-12-20T01:05:47.993Z,0.00
2022-12-20T01:06:47.999Z,0.00
2022-12-20T01:07:47.974Z,0.00
2022-12-20T01:08:47.948Z,0.00
2022-12-20T01:09:47.954Z,0.00
2022-12-20T01:10:47.989Z,0.00
2022-12-20T01:11:47.939Z,0.00
2022-12-20T01:12:47.929Z,0.00
2022-12-20T01:13:47.912Z,0.00
2022-12-20T01:14:47.943Z,0.00
2022-12-20T01:15:47.877Z,0.00
2022-12-20T01:16:47.965Z,0.00
2022-12-20T01:17:47.863Z,0.00
2022-12-20T01:18:47.852Z,0.00
2022-12-20T01:19:47.837Z,0.00
2022-12-20T01:20:47.854Z,0.00
2022-12-20T01:21:47.834Z,0.00
2022-12-20T01:22:47.950Z,0.00
2022-12-20T01:23:47.805Z,0.00
2022-12-20T01:24:47.766Z,0.00
2022-12-20T01:25:47.761Z,0.00
2022-12-20T01:26:47.805Z,0.00
2022-12-20T01:27:47.733Z,0.00
2022-12-20T01:28:47.758Z,0.00
2022-12-20T01:29:47.711Z,0.00
2022-12-20T01:30:47.703Z,0.00
2022-12-20T01:31:47.782Z,0.00
2022-12-20T01:32:47.733Z,0.00
2022-12-20T01:33:47.674Z,0.00
2022-12-20T01:34:47.679Z,0.00
2022-12-20T01:35:47.633Z,0.00
2022-12-20T01:36:47.647Z,0.00
2022-12-20T01:37:47.623Z,0.00
2022-12-20T01:38:47.634Z,0.00
2022-12-20T01:39:47.607Z,0.00
2022-12-20T01:40:47.584Z,0.00
2022-12-20T01:41:47.566Z,0.00
2022-12-20T01:42:47.610Z,0.00
2022-12-20T01:43:47.596Z,0.00
2022-12-20T01:44:47.535Z,0.00
2022-12-20T01:45:47.632Z,0.00
2022-12-20T01:46:47.570Z,0.00
2022-12-20T01:47:47.525Z,0.00
2022-12-20T01:48:47.507Z,0.00
2022-12-20T01:49:47.493Z,0.00
2022-12-20T01:50:47.476Z,0.00
2022-12-20T01:51:47.499Z,0.00
2022-12-20T01:52:47.470Z,0.00
2022-12-20T01:53:47.470Z,0.00
2022-12-20T01:54:47.470Z,0.00
2022-12-20T01:55:47.427Z,0.00
2022-12-20T01:56:47.419Z,0.00
2022-12-20T01:57:47.425Z,0.00
2022-12-20T01:58:47.378Z,0.00
2022-12-20T01:59:47.436Z,0.00
2022-12-20T02:00:47.429Z,0.00
2022-12-20T02:01:47.494Z,0.00
2022-12-20T02:02:47.432Z,0.00
2022-12-20T02:03:47.316Z,0.00
2022-12-20T02:04:47.333Z,0.00
2022-12-20T02:05:47.353Z,0.00
2022-12-20T02:06:47.343Z,0.00
2022-12-20T02:07:47.273Z,0.00
2022-12-20T02:08:47.291Z,0.00
2022-12-20T02:09:47.263Z,0.00
2022-12-20T02:10:47.260Z,0.00
2022-12-20T02:11:47.227Z,0.00
2022-12-20T02:12:47.243Z,0.00
2022-12-20T02:13:47.252Z,0.00
2022-12-20T02:14:47.204Z,0.00
2022-12-20T02:15:47.216Z,0.00
2022-12-20T02:16:47.219Z,0.00
2022-12-20T02:17:47.209Z,0.00
2022-12-20T02:18:47.167Z,0.00
2022-12-20T02:19:47.190Z,0.00
2022-12-20T02:20:47.144Z,0.00
2022-12-20T02:21:47.125Z,0.00
2022-12-20T02:22:47.101Z,0.00
2022-12-20T02:23:47.129Z,0.00
2022-12-20T02:24:47.096Z,0.00
2022-12-20T02:25:47.107Z,0.00
2022-12-20T02:26:47.075Z,0.00
2022-12-20T02:27:47.076Z,0.00
2022-12-20T02:28:47.065Z,0.00
2022-12-20T02:29:47.034Z,0.00
2022-12-20T02:30:47.015Z,0.00
2022-12-20T02:31:47.097Z,0.00
2022-12-20T02:32:47.017Z,0.00
2022-12-20T02:33:46.995Z,0.00
2022-12-20T02:34:46.962Z,0.00
2022-12-20T02:35:46.964Z,0.00
2022-12-20T02:36:46.997Z,0.00
2022-12-20T02:37:46.950Z,0.00
2022-12-20T02:38:46.931Z,0.00
2022-12-20T02:39:46.916Z,0.00
2022-12-20T02:40:46.926Z,0.00
2022-12-20T02:41:46.929Z,0.00
2022-12-20T02:42:46.884Z,0.00
2022-12-20T02:43:46.883Z,0.00
2022-12-20T02:44:46.856Z,0.00
2022-12-20T02:45:46.897Z,0.00
2022-12-20T02:46:46.839Z,0.00
2022-12-20T02:47:46.861Z,0.00
2022-12-20T02:48:46.805Z,0.00
2022-12-20T02:49:46.800Z,0.00
2022-12-20T02:50:46.823Z,0.00
2022-12-20T02:51:46.769Z,0.00
2022-12-20T02:52:46.779Z,0.00
2022-12-20T02:53:46.782Z,0.00
2022-12-20T02:54:46.741Z,0.00
2022-12-20T02:55:46.746Z,0.00
2022-12-20T02:56:46.707Z,0.00
2022-12-20T02:57:46.743Z,0.00
2022-12-20T02:58:46.694Z,0.00
2022-12-20T02:59:46.723Z,0.00
2022-12-20T03:00:46.708Z,0.00
2022-12-20T03:01:46.837Z,0.00
2022-12-20T03:02:46.734Z,0.00
2022-12-20T03:03:46.699Z,0.00
2022-12-20T03:04:46.630Z,0.00
2022-12-20T03:05:46.624Z,0.00
2022-12-20T03:06:46.629Z,0.00
2022-12-20T03:07:46.589Z,0.00
2022-12-20T03:08:46.572Z,0.00
2022-12-20T03:09:46.620Z,0.00
2022-12-20T03:10:46.574Z,0.00
2022-12-20T03:11:46.553Z,0.00
2022-12-20T03:12:46.569Z,0.00
2022-12-20T03:13:46.575Z,0.00
2022-12-20T03:14:46.501Z,0.00
2022-12-20T03:15:46.545Z,0.00
2022-12-20T03:16:46.564Z,0.00
2022-12-20T03:17:46.506Z,0.00
2022-12-20T03:18:46.527Z,0.00
2022-12-20T03:19:46.456Z,0.00
2022-12-20T03:20:46.471Z,0.00
2022-12-20T03:21:46.438Z,0.00
2022-12-20T03:22:46.417Z,0.00
2022-12-20T03:23:46.436Z,0.00
2022-12-20T03:24:46.394Z,0.00
2022-12-20T03:25:46.396Z,0.00
2022-12-20T03:26:46.403Z,0.00
2022-12-20T03:27:46.386Z,0.00
2022-12-20T03:28:46.377Z,0.00
2022-12-20T03:29:46.323Z,0.00
2022-12-20T03:30:46.392Z,0.00
2022-12-20T03:31:46.362Z,0.00
2022-12-20T03:32:46.293Z,0.00
2022-12-20T03:33:46.288Z,0.00
2022-12-20T03:34:46.273Z,0.00
2022-12-20T03:35:46.288Z,0.00
2022-12-20T03:36:46.284Z,0.00
2022-12-20T03:37:46.277Z,0.00
2022-12-20T03:38:46.251Z,0.00
2022-12-20T03:39:46.228Z,0.00
2022-12-20T03:40:46.241Z,0.00
2022-12-20T03:41:46.256Z,0.00
2022-12-20T03:42:46.177Z,0.00
2022-12-20T03:43:46.179Z,0.00
2022-12-20T03:44:46.235Z,0.00
2022-12-20T03:45:46.146Z,0.00
2022-12-20T03:46:46.227Z,0.00
2022-12-20T03:47:46.169Z,0.00
2022-12-20T03:48:46.143Z,0.00
2022-12-20T03:49:46.133Z,0.00
2022-12-20T03:50:46.100Z,0.00
2022-12-20T03:51:46.095Z,0.00
2022-12-20T03:52:46.069Z,0.00
2022-12-20T03:53:46.093Z,0.00
2022-12-20T03:54:46.100Z,0.00
2022-12-20T03:55:46.046Z,0.00
2022-12-20T03:56:46.024Z,0.00
2022-12-20T03:57:46.061Z,0.00
2022-12-20T03:58:46.059Z,0.00
2022-12-20T03:59:45.980Z,0.00
2022-12-20T04:00:46.009Z,0.00
2022-12-20T04:01:46.079Z,0.00
2022-12-20T04:02:46.193Z,0.00
2022-12-20T04:03:45.992Z,0.00
2022-12-20T04:04:45.962Z,0.00
2022-12-20T04:05:45.987Z,0.00
2022-12-20T04:06:45.926Z,0.00
2022-12-20T04:07:45.918Z,0.00
2022-12-20T04:08:45.915Z,0.00
2022-12-20T04:09:45.882Z,0.00
2022-12-20T04:10:45.882Z,0.00
2022-12-20T04:11:45.875Z,0.00
2022-12-20T04:12:45.857Z,0.00
2022-12-20T04:13:45.834Z,0.00
2022-12-20T04:14:45.865Z,0.00
2022-12-20T04:15:45.858Z,0.00
2022-12-20T04:16:45.808Z,0.00
2022-12-20T04:17:45.774Z,0.00
2022-12-20T04:18:45.819Z,0.00
2022-12-20T04:19:45.810Z,0.00
2022-12-20T04:20:45.789Z,0.00
2022-12-20T04:21:45.815Z,0.00
2022-12-20T04:22:45.726Z,0.00
2022-12-20T04:23:45.721Z,0.00
2022-12-20T04:24:45.738Z,0.00
2022-12-20T04:25:45.677Z,0.00
2022-12-20T04:26:45.695Z,0.00
2022-12-20T04:27:45.667Z,0.00
2022-12-20T04:28:45.670Z,0.00
2022-12-20T04:29:45.834Z,0.00
2022-12-20T04:30:45.764Z,0.00
2022-12-20T04:31:45.685Z,0.00
2022-12-20T04:32:45.629Z,0.00
2022-12-20T04:33:45.590Z,0.00
2022-12-20T04:34:45.589Z,0.00
2022-12-20T04:35:45.642Z,0.00
2022-12-20T04:36:45.561Z,0.00
2022-12-20T04:37:45.574Z,0.00
2022-12-20T04:38:45.561Z,0.00
2022-12-20T04:39:45.550Z,0.00
2022-12-20T04:40:45.520Z,0.00
2022-12-20T04:41:45.545Z,0.00
2022-12-20T04:42:45.527Z,0.00
2022-12-20T04:43:45.491Z,0.00
2022-12-20T04:44:45.470Z,0.00
2022-12-20T04:45:45.470Z,0.00
2022-12-20T04:46:45.504Z,0.00
2022-12-20T04:47:45.494Z,0.00
2022-12-20T04:49:00.701Z,0.00
2022-12-20T04:49:46.455Z,0.00
2022-12-20T04:50:45.417Z,0.00
2022-12-20T04:51:45.395Z,0.00
2022-12-20T04:52:47.880Z,0.00
2022-12-20T04:53:45.384Z,0.00
2022-12-20T04:54:45.371Z,0.00
2022-12-20T04:55:45.385Z,0.00
2022-12-20T04:56:45.325Z,0.00
2022-12-20T04:57:45.430Z,0.00
2022-12-20T04:58:45.324Z,0.00
2022-12-20T04:59:45.293Z,0.00
2022-12-20T05:00:45.283Z,0.00
2022-12-20T05:01:45.370Z,0.00
2022-12-20T05:02:45.469Z,0.00
2022-12-20T05:03:45.317Z,0.00
2022-12-20T05:04:45.280Z,0.00
2022-12-20T05:05:45.225Z,0.00
2022-12-20T05:06:45.228Z,0.00
2022-12-20T05:07:45.247Z,0.00
2022-12-20T05:08:45.210Z,0.00
2022-12-20T05:09:45.222Z,0.00
2022-12-20T05:10:45.232Z,0.00
2022-12-20T05:11:45.157Z,0.00
2022-12-20T05:12:45.184Z,0.00
2022-12-20T05:13:45.144Z,0.00
2022-12-20T05:14:45.181Z,0.00
2022-12-20T05:15:45.224Z,0.00
2022-12-20T05:16:45.154Z,0.00
2022-12-20T05:17:45.132Z,0.00
2022-12-20T05:18:49.314Z,0.00
2022-12-20T05:19:45.084Z,0.00
2022-12-20T05:20:45.102Z,0.00
2022-12-20T05:21:45.099Z,0.00
2022-12-20T05:22:45.059Z,0.00
2022-12-20T05:23:45.055Z,0.00
2022-12-20T05:24:45.008Z,0.00
2022-12-20T05:25:45.010Z,0.00
2022-12-20T05:26:44.995Z,0.00
2022-12-20T05:27:45.065Z,0.00
2022-12-20T05:28:44.988Z,0.00
2022-12-20T05:29:44.997Z,0.00
2022-12-20T05:30:44.955Z,0.00
2022-12-20T05:31:44.994Z,0.00
2022-12-20T05:32:44.958Z,0.00
2022-12-20T05:33:44.947Z,0.00
2022-12-20T05:34:44.900Z,0.00
2022-12-20T05:35:44.883Z,0.00
2022-12-20T05:36:44.899Z,0.00
2022-12-20T05:37:44.890Z,0.00
2022-12-20T05:38:44.872Z,0.00
2022-12-20T05:39:44.857Z,0.00
2022-12-20T05:40:44.847Z,0.00
2022-12-20T05:41:44.836Z,0.00
2022-12-20T05:42:44.862Z,0.00
2022-12-20T05:43:44.813Z,0.00
2022-12-20T05:44:44.794Z,0.00
2022-12-20T05:45:44.773Z,0.00
2022-12-20T05:46:44.827Z,0.00
2022-12-20T05:47:44.788Z,0.00
2022-12-20T05:48:44.796Z,0.00
2022-12-20T05:49:44.759Z,0.00
2022-12-20T05:50:44.750Z,0.00
2022-12-20T05:51:44.705Z,0.00
2022-12-20T05:52:44.697Z,0.00
2022-12-20T05:53:44.727Z,0.00
2022-12-20T05:54:44.718Z,0.00
2022-12-20T05:55:44.679Z,0.00
2022-12-20T05:56:44.647Z,0.00
2022-12-20T05:57:44.640Z,0.00
2022-12-20T05:58:44.630Z,0.00
2022-12-20T05:59:44.686Z,0.00
2022-12-20T06:00:44.597Z,0.00
2022-12-20T06:01:44.700Z,0.00
2022-12-20T06:02:44.782Z,0.00
2022-12-20T06:03:44.753Z,0.00
2022-12-20T06:04:44.588Z,0.00
2022-12-20T06:05:44.542Z,0.00
2022-12-20T06:06:44.561Z,0.00
2022-12-20T06:07:44.554Z,0.00
2022-12-20T06:08:44.541Z,0.00
2022-12-20T06:09:44.511Z,0.00
2022-12-20T06:10:44.528Z,0.00
2022-12-20T06:11:44.468Z,0.00
2022-12-20T06:12:44.465Z,0.00
2022-12-20T06:13:44.497Z,0.00
2022-12-20T06:14:44.485Z,0.00
2022-12-20T06:15:44.457Z,0.00
2022-12-20T06:16:44.479Z,0.00
2022-12-20T06:17:44.400Z,0.00
2022-12-20T06:18:44.440Z,0.00
2022-12-20T06:19:44.445Z,0.00
2022-12-20T06:20:44.415Z,0.00
2022-12-20T06:21:44.373Z,0.00
2022-12-20T06:22:44.355Z,0.00
2022-12-20T06:23:44.374Z,0.00
2022-12-20T06:24:48.156Z,0.00
2022-12-20T06:25:44.356Z,0.00
2022-12-20T06:26:44.302Z,0.00
2022-12-20T06:27:44.330Z,0.00
2022-12-20T06:28:44.302Z,0.00
2022-12-20T06:29:44.262Z,0.00
2022-12-20T06:30:44.294Z,0.00
2022-12-20T06:31:44.286Z,0.00
2022-12-20T06:32:44.258Z,0.00
2022-12-20T06:33:44.277Z,0.00
2022-12-20T06:34:44.233Z,0.00
2022-12-20T06:35:44.244Z,0.00
2022-12-20T06:36:44.312Z,0.00
2022-12-20T06:37:44.172Z,0.00
2022-12-20T06:38:44.192Z,0.00
2022-12-20T06:39:44.192Z,0.00
2022-12-20T06:40:44.143Z,4.00
2022-12-20T06:41:44.163Z,4.00
2022-12-20T06:42:44.399Z,4.00
2022-12-20T06:43:44.097Z,4.00
2022-12-20T06:44:44.088Z,0.00
2022-12-20T06:45:44.206Z,4.00
2022-12-20T06:46:44.202Z,4.00
2022-12-20T06:47:44.129Z,4.00
2022-12-20T06:48:44.086Z,4.00
2022-12-20T06:49:44.072Z,4.00
2022-12-20T06:50:44.071Z,8.00
2022-12-20T06:51:44.049Z,8.00
2022-12-20T06:52:44.032Z,8.00
2022-12-20T06:53:44.244Z,12.00
2022-12-20T06:54:43.981Z,12.00
2022-12-20T06:55:44.054Z,16.00
2022-12-20T06:56:44.233Z,24.00
2022-12-20T06:57:44.994Z,28.00
2022-12-20T06:58:43.948Z,28.00
2022-12-20T06:59:43.918Z,32.00
2022-12-20T07:00:43.992Z,40.00
2022-12-20T07:01:44.200Z,44.00
2022-12-20T07:02:44.031Z,52.00
2022-12-20T07:03:43.956Z,64.00
2022-12-20T07:04:43.872Z,72.00
2022-12-20T07:05:43.909Z,80.00
2022-12-20T07:06:43.890Z,88.00
2022-12-20T07:07:45.286Z,96.00
2022-12-20T07:08:43.841Z,100.00
2022-12-20T07:09:43.819Z,100.00
2022-12-20T07:10:43.817Z,100.00
2022-12-20T07:11:43.933Z,100.00
2022-12-20T07:12:47.726Z,100.00
2022-12-20T07:13:43.760Z,104.00
2022-12-20T07:14:43.782Z,108.00
2022-12-20T07:15:43.732Z,124.00
2022-12-20T07:16:43.828Z,136.00
2022-12-20T07:17:43.743Z,140.00
2022-12-20T07:18:43.723Z,140.00
2022-12-20T07:19:50.320Z,132.00
2022-12-20T07:20:44.764Z,124.00
2022-12-20T07:21:43.700Z,120.00
2022-12-20T07:22:43.721Z,116.00
2022-12-20T07:23:43.658Z,112.00
2022-12-20T07:24:43.668Z,116.00
2022-12-20T07:25:43.624Z,116.00
2022-12-20T07:26:44.685Z,124.00
2022-12-20T07:27:43.760Z,128.00
2022-12-20T07:28:43.602Z,136.00
2022-12-20T07:29:43.622Z,152.00
2022-12-20T07:30:43.594Z,160.00
2022-12-20T07:31:43.940Z,180.00
2022-12-20T07:32:43.557Z,204.00
2022-12-20T07:33:43.535Z,220.00
2022-12-20T07:34:43.587Z,236.00
2022-12-20T07:35:43.529Z,252.00
2022-12-20T07:36:43.504Z,272.00
2022-12-20T07:37:43.560Z,292.00
2022-12-20T07:38:43.541Z,308.00
2022-12-20T07:39:43.475Z,316.00
2022-12-20T07:40:43.470Z,324.00
2022-12-20T07:41:43.459Z,348.00
2022-12-20T07:42:48.504Z,368.00
2022-12-20T07:43:44.476Z,380.00
2022-12-20T07:44:43.437Z,408.00
2022-12-20T07:45:43.457Z,436.00
2022-12-20T07:46:43.534Z,480.00
2022-12-20T07:47:43.379Z,540.00
2022-12-20T07:48:43.406Z,596.00
2022-12-20T07:49:43.354Z,644.00
2022-12-20T07:50:43.369Z,680.00
2022-12-20T07:51:43.386Z,728.00
2022-12-20T07:52:43.339Z,764.00
2022-12-20T07:53:43.343Z,772.00
2022-12-20T07:54:43.288Z,744.00
2022-12-20T07:55:43.323Z,688.00
2022-12-20T07:56:43.391Z,632.00
2022-12-20T07:57:43.312Z,592.00
2022-12-20T07:58:43.331Z,572.00
2022-12-20T07:59:43.252Z,572.00
2022-12-20T08:00:43.228Z,568.00
2022-12-20T08:01:43.798Z,544.00
2022-12-20T08:02:43.447Z,540.00
2022-12-20T08:03:43.306Z,544.00
2022-12-20T08:04:43.178Z,572.00
2022-12-20T08:05:44.289Z,584.00
2022-12-20T08:06:43.196Z,588.00
2022-12-20T08:07:43.132Z,604.00
2022-12-20T08:08:43.198Z,644.00
2022-12-20T08:09:43.170Z,680.00
2022-12-20T08:10:43.131Z,724.00
2022-12-20T08:11:43.105Z,760.00
2022-12-20T08:12:43.098Z,792.00
2022-12-20T08:13:46.567Z,816.00
2022-12-20T08:14:43.073Z,820.00
2022-12-20T08:15:43.076Z,796.00
2022-12-20T08:16:43.145Z,776.00
2022-12-20T08:17:43.254Z,760.00
2022-12-20T08:18:43.026Z,752.00
2022-12-20T08:19:43.054Z,748.00
2022-12-20T08:20:43.024Z,756.00
2022-12-20T08:21:42.998Z,772.00
2022-12-20T08:22:42.972Z,768.00
2022-12-20T08:23:42.993Z,780.00
2022-12-20T08:24:43.052Z,812.00
2022-12-20T08:25:42.993Z,896.00
2022-12-20T08:26:42.945Z,1076.00
2022-12-20T08:27:42.904Z,1288.00
2022-12-20T08:28:42.942Z,1496.00
2022-12-20T08:29:42.953Z,1672.00
2022-12-20T08:30:43.143Z,1848.00
2022-12-20T08:31:49.482Z,1992.00
2022-12-20T08:32:43.864Z,2076.00
2022-12-20T08:33:43.962Z,2112.00
2022-12-20T08:34:42.827Z,2092.00
2022-12-20T08:35:42.851Z,2032.00
2022-12-20T08:36:42.894Z,1896.00
2022-12-20T08:37:42.794Z,1720.00
2022-12-20T08:38:42.781Z,1556.00
2022-12-20T08:39:42.820Z,1428.00
2022-12-20T08:40:42.787Z,1312.00
2022-12-20T08:41:42.802Z,1216.00
2022-12-20T08:42:42.763Z,1148.00
2022-12-20T08:43:42.783Z,1112.00
2022-12-20T08:44:42.733Z,1092.00
2022-12-20T08:45:43.258Z,1116.00
2022-12-20T08:46:42.802Z,1212.00
2022-12-20T08:47:42.705Z,1348.00
2022-12-20T08:48:42.696Z,1424.00
2022-12-20T08:49:47.545Z,1472.00
2022-12-20T08:50:43.702Z,1556.00
2022-12-20T08:51:42.763Z,1648.00
2022-12-20T08:52:42.659Z,1768.00
2022-12-20T08:53:42.626Z,1892.00
2022-12-20T08:54:43.684Z,2028.00
2022-12-20T08:55:42.634Z,2124.00
2022-12-20T08:56:44.127Z,2160.00
2022-12-20T08:57:42.585Z,2252.00
2022-12-20T08:58:42.747Z,2436.00
2022-12-20T08:59:42.577Z,2668.00
2022-12-20T09:00:42.548Z,2796.00
2022-12-20T09:01:42.728Z,2668.00
2022-12-20T09:02:42.767Z,2424.00
2022-12-20T09:03:43.170Z,2160.00
2022-12-20T09:04:42.546Z,1916.00
2022-12-20T09:05:42.487Z,1680.00
2022-12-20T09:06:42.524Z,1508.00
2022-12-20T09:07:42.457Z,1472.00
2022-12-20T09:08:42.454Z,1532.00
2022-12-20T09:09:42.956Z,1584.00
2022-12-20T09:10:42.477Z,1548.00
2022-12-20T09:11:42.414Z,1452.00
2022-12-20T09:12:42.440Z,1400.00
2022-12-20T09:13:44.239Z,1408.00
2022-12-20T09:14:42.414Z,1404.00
2022-12-20T09:15:42.460Z,1372.00
2022-12-20T09:16:42.361Z,1324.00
2022-12-20T09:17:42.630Z,1296.00
2022-12-20T09:18:42.336Z,1280.00
2022-12-20T09:19:42.315Z,1280.00
2022-12-20T09:20:42.358Z,1284.00
2022-12-20T09:21:42.291Z,1300.00
2022-12-20T09:22:42.319Z,1324.00
2022-12-20T09:23:42.288Z,1336.00
2022-12-20T09:24:42.271Z,1336.00
2022-12-20T09:25:42.268Z,1340.00
2022-12-20T09:26:42.258Z,1368.00
2022-12-20T09:27:42.233Z,1388.00
2022-12-20T09:28:42.268Z,1356.00
2022-12-20T09:29:42.242Z,1292.00
2022-12-20T09:30:42.237Z,1244.00
2022-12-20T09:31:42.278Z,1200.00
2022-12-20T09:32:42.257Z,1148.00
2022-12-20T09:33:42.196Z,1108.00
2022-12-20T09:34:42.164Z,1100.00
2022-12-20T09:35:42.246Z,1128.00
2022-12-20T09:36:42.115Z,1124.00
2022-12-20T09:37:42.100Z,1120.00
2022-12-20T09:38:42.496Z,1076.00
2022-12-20T09:39:45.402Z,1060.00
2022-12-20T09:40:42.073Z,1064.00
2022-12-20T09:41:42.911Z,1076.00
2022-12-20T09:42:42.063Z,1088.00
2022-12-20T09:43:42.320Z,1136.00
2022-12-20T09:44:42.145Z,1200.00
2022-12-20T09:45:42.041Z,1284.00
2022-12-20T09:46:42.062Z,1428.00
2022-12-20T09:47:42.037Z,1676.00
2022-12-20T09:48:41.972Z,1980.00
2022-12-20T09:49:42.027Z,2164.00
2022-12-20T09:50:42.024Z,2276.00
2022-12-20T09:51:41.998Z,2400.00
2022-12-20T09:52:41.965Z,2436.00
2022-12-20T09:53:41.961Z,2432.00
2022-12-20T09:54:41.922Z,2412.00
2022-12-20T09:55:41.908Z,2344.00
2022-12-20T09:56:41.922Z,2244.00
2022-12-20T09:57:41.925Z,2188.00
2022-12-20T09:58:41.868Z,2152.00
2022-12-20T09:59:47.493Z,2176.00
2022-12-20T10:00:43.642Z,2192.00
2022-12-20T10:01:41.913Z,2220.00
2022-12-20T10:03:00.136Z,2288.00
2022-12-20T10:03:43.024Z,2468.00
2022-12-20T10:04:42.153Z,2648.00
2022-12-20T10:05:42.281Z,2720.00
2022-12-20T10:06:41.822Z,2676.00
2022-12-20T10:07:41.766Z,2620.00
2022-12-20T10:08:41.769Z,2548.00
2022-12-20T10:09:41.736Z,2492.00
2022-12-20T10:10:41.769Z,2456.00
2022-12-20T10:11:49.843Z,2380.00
2022-12-20T10:12:42.731Z,2320.00
2022-12-20T10:13:41.699Z,2344.00
2022-12-20T10:14:41.834Z,2520.00
2022-12-20T10:15:41.713Z,2768.00
2022-12-20T10:16:41.724Z,2992.00
2022-12-20T10:17:41.667Z,3164.00
2022-12-20T10:18:41.633Z,3172.00
2022-12-20T10:19:41.625Z,2924.00
2022-12-20T10:20:41.643Z,2508.00
2022-12-20T10:21:41.593Z,2240.00
2022-12-20T10:22:41.615Z,2288.00
2022-12-20T10:23:41.575Z,2408.00
2022-12-20T10:24:41.623Z,2496.00
2022-12-20T10:25:41.573Z,2520.00
2022-12-20T10:26:41.557Z,2448.00
2022-12-20T10:27:41.616Z,2272.00
2022-12-20T10:28:41.551Z,2144.00
2022-12-20T10:29:41.576Z,2204.00
2022-12-20T10:30:41.516Z,2396.00
2022-12-20T10:31:41.612Z,2536.00
2022-12-20T10:32:41.525Z,2572.00
2022-12-20T10:33:41.486Z,2580.00
2022-12-20T10:34:48.181Z,2464.00
2022-12-20T10:35:42.451Z,2316.00
2022-12-20T10:36:41.444Z,2228.00
2022-12-20T10:37:44.368Z,2300.00
2022-12-20T10:38:42.453Z,2476.00
2022-12-20T10:39:41.400Z,2648.00
2022-12-20T10:41:42.404Z,2808.00
2022-12-20T10:42:41.382Z,2932.00
2022-12-20T10:43:41.357Z,3120.00
2022-12-20T10:44:41.389Z,3168.00
2022-12-20T10:45:41.328Z,2996.00
2022-12-20T10:46:41.352Z,2960.00
2022-12-20T10:47:41.377Z,2980.00
2022-12-20T10:48:41.323Z,2940.00
2022-12-20T10:49:41.342Z,2760.00
2022-12-20T10:50:41.300Z,2576.00
2022-12-20T10:51:41.500Z,2532.00
2022-12-20T10:52:41.276Z,2496.00
2022-12-20T10:53:41.311Z,2404.00
2022-12-20T10:54:41.216Z,2272.00
2022-12-20T10:55:41.248Z,2212.00
2022-12-20T10:56:41.221Z,2204.00
2022-12-20T10:57:41.183Z,2244.00
2022-12-20T10:58:41.197Z,2240.00
2022-12-20T10:59:41.220Z,2148.00
2022-12-20T11:00:42.182Z,2060.00
2022-12-20T11:01:41.253Z,2020.00
2022-12-20T11:02:42.654Z,1976.00
2022-12-20T11:03:41.278Z,1940.00
2022-12-20T11:04:41.150Z,1980.00
2022-12-20T11:05:41.077Z,2092.00
2022-12-20T11:06:41.056Z,2308.00
2022-12-20T11:07:46.523Z,2536.00
2022-12-20T11:08:51.159Z,2672.00
2022-12-20T11:09:42.145Z,2740.00
2022-12-20T11:10:41.065Z,2748.00
2022-12-20T11:11:41.001Z,2784.00
2022-12-20T11:12:41.011Z,2952.00
2022-12-20T11:13:41.015Z,2932.00
2022-12-20T11:14:41.064Z,2652.00
2022-12-20T11:15:41.063Z,2296.00
2022-12-20T11:16:41.006Z,2032.00
2022-12-20T11:17:41.048Z,1916.00
2022-12-20T11:18:40.964Z,1888.00
2022-12-20T11:19:40.923Z,1948.00
2022-12-20T11:20:40.959Z,1996.00
2022-12-20T11:21:40.897Z,2052.00
2022-12-20T11:22:40.895Z,2116.00
2022-12-20T11:23:40.887Z,2240.00
2022-12-20T11:24:40.897Z,2496.00
2022-12-20T11:25:40.873Z,2868.00
2022-12-20T11:26:40.833Z,3116.00
2022-12-20T11:27:40.878Z,3192.00
2022-12-20T11:28:40.793Z,3268.00
2022-12-20T11:29:40.784Z,3608.00
2022-12-20T11:30:40.807Z,4280.00
2022-12-20T11:31:40.880Z,4948.00
2022-12-20T11:32:46.627Z,5744.00
2022-12-20T11:33:41.745Z,7576.00
2022-12-20T11:34:40.774Z,5128.00
2022-12-20T11:35:40.748Z,4964.00
2022-12-20T11:36:40.720Z,4896.00
2022-12-20T11:37:40.732Z,4876.00
2022-12-20T11:38:40.694Z,4824.00
2022-12-20T11:39:40.717Z,4624.00
2022-12-20T11:40:40.688Z,4328.00
2022-12-20T11:41:40.695Z,4020.00
2022-12-20T11:42:40.663Z,3668.00
2022-12-20T11:44:08.105Z,3296.00
2022-12-20T11:44:50.125Z,3016.00
2022-12-20T11:45:41.673Z,2912.00
2022-12-20T11:46:40.643Z,2948.00
2022-12-20T11:47:40.594Z,3008.00
2022-12-20T11:48:40.582Z,3088.00
2022-12-20T11:49:40.607Z,3236.00
2022-12-20T11:50:40.805Z,3536.00
2022-12-20T11:51:40.613Z,3824.00
2022-12-20T11:52:40.530Z,3960.00
2022-12-20T11:53:40.522Z,3924.00
2022-12-20T11:54:40.502Z,3796.00
2022-12-20T11:55:40.504Z,3676.00
2022-12-20T11:56:44.530Z,3572.00
2022-12-20T11:58:08.736Z,3456.00
2022-12-20T11:58:41.498Z,3312.00
2022-12-20T11:59:40.455Z,3180.00
2022-12-20T12:00:40.445Z,3096.00
2022-12-20T12:01:40.578Z,3072.00
2022-12-20T12:02:40.557Z,3080.00
2022-12-20T12:03:40.394Z,3088.00
2022-12-20T12:04:40.385Z,3044.00
2022-12-20T12:05:40.407Z,3156.00
2022-12-20T12:06:40.428Z,3340.00
2022-12-20T12:07:40.373Z,3556.00
2022-12-20T12:08:40.349Z,3676.00
2022-12-20T12:09:40.324Z,3772.00
2022-12-20T12:10:40.335Z,3840.00
2022-12-20T12:12:05.921Z,3840.00
2022-12-20T12:12:41.533Z,3804.00
2022-12-20T12:13:40.330Z,3840.00
2022-12-20T12:14:40.294Z,3992.00
2022-12-20T12:15:40.366Z,4136.00
2022-12-20T12:16:40.344Z,4176.00
2022-12-20T12:17:40.267Z,4132.00
2022-12-20T12:18:40.271Z,4000.00
2022-12-20T12:19:40.235Z,3820.00
2022-12-20T12:20:40.211Z,3684.00
2022-12-20T12:21:40.199Z,3628.00
2022-12-20T12:22:40.209Z,3616.00
2022-12-20T12:23:40.193Z,3648.00
2022-12-20T12:24:40.185Z,3660.00
2022-12-20T12:25:40.136Z,3652.00
2022-12-20T12:26:40.127Z,3600.00
2022-12-20T12:27:40.170Z,3320.00
2022-12-20T12:28:40.374Z,3048.00
2022-12-20T12:29:40.120Z,2936.00
2022-12-20T12:30:40.142Z,2956.00
2022-12-20T12:31:40.092Z,2928.00
2022-12-20T12:32:42.802Z,2844.00
2022-12-20T12:33:40.067Z,2784.00
2022-12-20T12:34:40.057Z,2740.00
2022-12-20T12:35:40.057Z,2784.00
2022-12-20T12:36:40.034Z,2844.00
2022-12-20T12:37:40.004Z,2928.00
2022-12-20T12:38:40.020Z,2868.00
2022-12-20T12:39:39.961Z,2708.00
2022-12-20T12:40:39.993Z,2780.00
2022-12-20T12:41:39.961Z,2852.00
2022-12-20T12:42:39.965Z,3000.00
2022-12-20T12:43:39.948Z,3360.00
2022-12-20T12:44:39.961Z,3672.00
2022-12-20T12:45:39.992Z,3808.00
2022-12-20T12:46:39.999Z,3912.00
2022-12-20T12:47:39.881Z,3908.00